Weather at Dubai International Airport

Public forecast

Using degrees Celsius for public forecast. Weather courtesy of forecast.io.

Current aviation weather report (METAR) for Dubai International Airport

Retrieved 2020/11/25 21:00 UTC (35 minutes ago):

OMDB 252100Z 08007KT CAVOK 22/15 Q1016 NOSIG

Aviation forecast (TAF) for Dubai International Airport

Retrieved 2020/11/25 18:00 UTC (4 hours ago):

TAF OMDB 251700Z 2518/2700 09008KT CAVOK BECMG 2610/2612 35012KT BECMG 2614/2616 10009KT